KSLK/SLK METAR and TAF weather

Enter ICAO airport designator
Station Type Date Time Source
KSLK METAR 2019/05/19 20:29 UTC NOAA

KSLK 192029Z AUTO 22009G19KT 7SM -TSRA FEW065 BKN090 BKN110 19/17 A2986 RMK AO2 PK WND 26028/2011 LTG DSNT SE RAB10 TSB23 P0003 T01890167


Station Type Date Time Source
KSLK Decoded METAR 2019/05/19 20:29 UTC NOAA

ADIRONDACK REGIONAL AIRPORT, NY, United States (KSLK) 44-24N 074-12W 498M
May 19, 2019 - 04:29 PM EDT / 2019.05.19 2029 UTC
Wind: from the SW (220 degrees) at 10 MPH (9 KT) gusting to 22 MPH (19 KT):0
Visibility: 7 mile(s):0
Sky conditions: mostly cloudy
Weather: light rain with thunder; Lightning observed
Precipitation last hour: 0.03 inches
Temperature: 66.0 F (18.9 C)
Dew Point: 62.1 F (16.7 C)
Relative Humidity: 87%
Pressure (altimeter): 29.86 in. Hg (1011 hPa)
ob: KSLK 192029Z AUTO 22009G19KT 7SM -TSRA FEW065 BKN090 BKN110 19/17 A2986 RMK AO2 PK WND 26028/2011 LTG DSNT SE RAB10 TSB23 P0003 T01890167
cycle: 20

Station Type Date Time Source
KSLK TAF 2019/05/19 18:36 UTC NOAA

TAF KSLK 191734Z 1918/2018 24009KT P6SM SCT035
FM192000 22007KT P6SM -SHRA VCTS BKN060CB
TEMPO 1921/2001 4SM -TSRA BR BKN025CB
FM200100 19010KT 4SM -SHRA BR VCTS OVC050CB
FM200500 22010KT P6SM VCSH BKN040
FM201200 23009G18KT P6SM VCSH BKN015

Example: see airport list